KBOI/BOI METAR and TAF weather

Enter ICAO airport designator
Station Type Date Time Source
KBOI METAR 2021/05/17 22:36 UTC NOAA

KBOI 172236Z 29006G15KT 10SM CLR 29/M01 A2980 RMK AO2 T02941011


Station Type Date Time Source
KBOI Decoded METAR 2021/05/17 22:36 UTC NOAA

BOISE AIR TERMINAL, ID, United States (KBOI) 43-34N 116-14W 875M
May 17, 2021 - 06:36 PM EDT / 2021.05.17 2236 UTC
Wind: from the WNW (290 degrees) at 7 MPH (6 KT) gusting to 17 MPH (15 KT):0
Visibility: 10 mile(s):0
Sky conditions: clear
Temperature: 84.9 F (29.4 C)
Dew Point: 30.0 F (-1.1 C)
Relative Humidity: 13%
Pressure (altimeter): 29.8 in. Hg (1009 hPa)
ob: KBOI 172236Z 29006G15KT 10SM CLR 29/M01 A2980 RMK AO2 T02941011
cycle: 22

Station Type Date Time Source
KBOI TAF 2021/05/17 18:30 UTC NOAA

TAF KBOI 171728Z 1718/1818 29007KT P6SM SKC
FM180100 VRB06KT P6SM SKC
FM180700 27012KT P6SM SCT200
FM181500 31015G25KT P6SM BKN200

Example: see airport list